Time;durP1;ratioP1;P1;durP2;ratioP2;P2;SDS_P1;SDS_P2;PMS_P1;PMS_P2;Temp;Humidity;BMP_temperature;BMP_pressure;BME280_temperature;BME280_humidity;BME280_pressure;Samples;Min_cycle;Max_cycle;Signal;HPM_P1;HPM_P2
2024/01/18 00:02:22;;;;;;;0.52;0.52;;;;;;;11.17;95.91;99282.47;10383657;28;20455;-80
2024/01/18 00:07:24;;;;;;;0.57;0.57;;;;;;;10.43;97.68;99275.69;10417505;28;20064;-79
2024/01/18 00:12:26;;;;;;;0.00;0.00;;;;;;;11.92;94.03;99276.16;10368316;28;20081;-80
2024/01/18 00:17:27;;;;;;;0.10;0.10;;;;;;;12.24;92.40;99280.31;10374253;28;20057;-79
2024/01/18 00:22:29;;;;;;;0.00;0.00;;;;;;;12.02;94.46;99288.19;10384629;28;20056;-79
2024/01/18 00:27:31;;;;;;;0.10;0.10;;;;;;;11.76;94.56;99290.88;10379281;28;20042;-80
2024/01/18 00:32:33;;;;;;;0.00;0.00;;;;;;;11.43;94.75;99309.03;10365417;28;20050;-80
2024/01/18 00:37:34;;;;;;;0.00;0.00;;;;;;;11.24;96.55;99308.22;10402151;28;20381;-81
2024/01/18 00:42:36;;;;;;;0.50;0.50;;;;;;;11.16;95.24;99314.28;10395824;28;20532;-81
2024/01/18 00:47:38;;;;;;;0.00;0.00;;;;;;;12.36;93.04;99316.34;10396080;28;20057;-79
2024/01/18 00:52:39;;;;;;;0.00;0.00;;;;;;;11.98;92.38;99327.78;10397453;28;20096;-79
2024/01/18 00:57:42;;;;;;;0.00;0.00;;;;;;;12.29;92.23;99318.97;10380804;28;20065;-80
2024/01/18 01:02:43;;;;;;;0.68;0.68;;;;;;;13.11;89.22;99319.16;10360330;28;20050;-81
2024/01/18 01:07:45;;;;;;;0.63;0.63;;;;;;;11.88;90.55;99332.09;10393812;28;20474;-80
2024/01/18 01:12:47;;;;;;;0.38;0.38;;;;;;;10.89;94.66;99342.66;10362659;28;20124;-80
2024/01/18 01:17:49;;;;;;;0.00;0.00;;;;;;;11.07;95.19;99346.94;10382359;28;20132;-82
2024/01/18 01:22:51;;;;;;;0.10;0.10;;;;;;;10.86;95.43;99346.94;10353404;28;20050;-80
2024/01/18 01:27:52;;;;;;;0.00;0.00;;;;;;;11.34;94.92;99349.47;10389921;28;20500;-80
2024/01/18 01:32:54;;;;;;;0.00;0.00;;;;;;;11.69;93.48;99353.69;10357494;28;20493;-80
2024/01/18 01:37:56;;;;;;;0.00;0.00;;;;;;;13.17;90.97;99365.66;10377928;28;20056;-80
2024/01/18 01:42:58;;;;;;;0.55;0.55;;;;;;;12.40;90.35;99380.91;10382645;28;20560;-79
2024/01/18 01:48:00;;;;;;;0.00;0.00;;;;;;;12.75;90.32;99377.22;10395717;28;20698;-80
2024/01/18 01:53:03;;;;;;;0.32;0.32;;;;;;;11.95;91.99;99379.34;10396570;28;20050;-79
2024/01/18 01:58:06;;;;;;;0.00;0.00;;;;;;;12.16;93.03;99387.91;10382981;28;20410;-80
2024/01/18 02:03:08;;;;;;;0.38;0.38;;;;;;;12.55;91.70;99396.28;10366313;28;20145;-80
2024/01/18 02:08:10;;;;;;;0.10;0.10;;;;;;;11.85;93.82;99393.19;10385630;28;20041;-80
2024/01/18 02:13:12;;;;;;;0.00;0.00;;;;;;;11.48;93.39;99395.88;10379716;28;20053;-79
2024/01/18 02:18:13;;;;;;;0.00;0.00;;;;;;;12.62;91.74;99391.94;10385700;28;20548;-80
2024/01/18 02:23:16;;;;;;;0.55;0.55;;;;;;;12.00;91.34;99385.41;10368604;28;20041;-79
2024/01/18 02:28:18;;;;;;;0.25;0.25;;;;;;;11.93;92.21;99394.00;10390008;28;20414;-80
2024/01/18 02:33:20;;;;;;;0.63;0.63;;;;;;;12.86;90.11;99396.06;10382663;28;20078;-79
2024/01/18 02:38:22;;;;;;;0.00;0.00;;;;;;;12.47;89.99;99403.25;10377754;28;20054;-80
2024/01/18 02:43:24;;;;;;;0.15;0.15;;;;;;;12.40;90.36;99411.91;10387693;28;20050;-79
2024/01/18 02:48:26;;;;;;;0.85;0.70;;;;;;;12.29;90.30;99417.09;10368657;28;20050;-80
2024/01/18 02:53:27;;;;;;;0.00;0.00;;;;;;;12.24;92.06;99416.28;10369961;28;20046;-80
2024/01/18 02:58:29;;;;;;;0.08;0.08;;;;;;;12.99;89.14;99423.53;10382810;28;20132;-80
2024/01/18 03:03:31;;;;;;;0.10;0.10;;;;;;;12.24;90.69;99434.34;10395363;28;20090;-79
2024/01/18 03:08:34;;;;;;;0.00;0.00;;;;;;;9.91;94.45;99431.66;10381863;28;20060;-79
2024/01/18 03:13:36;;;;;;;0.00;0.00;;;;;;;11.08;92.84;99432.84;10394969;28;20076;-79
2024/01/18 03:18:37;;;;;;;0.17;0.17;;;;;;;11.33;90.67;99423.41;10408463;28;20394;-79
2024/01/18 03:23:40;;;;;;;0.00;0.00;;;;;;;9.56;98.23;99416.06;10400769;28;20045;-80
2024/01/18 03:28:41;;;;;;;0.40;0.40;;;;;;;8.60;100.00;99425.56;10379073;28;20045;-79
2024/01/18 03:33:43;;;;;;;0.38;0.38;;;;;;;10.63;98.63;99417.34;10356643;28;20053;-79
2024/01/18 03:38:45;;;;;;;0.17;0.17;;;;;;;11.04;95.57;99424.28;10363347;28;20061;-78
2024/01/18 03:43:46;;;;;;;0.00;0.00;;;;;;;10.75;96.02;99421.66;10385183;28;20045;-79
2024/01/18 03:48:48;;;;;;;0.00;0.00;;;;;;;11.39;92.03;99422.53;10374126;28;20045;-79
2024/01/18 03:53:50;;;;;;;0.38;0.38;;;;;;;12.23;91.75;99420.59;10352523;28;20161;-79
2024/01/18 03:58:52;;;;;;;0.00;0.00;;;;;;;11.26;91.32;99424.25;10362682;28;20523;-79
2024/01/18 04:03:54;;;;;;;0.05;0.05;;;;;;;11.95;89.00;99424.97;10392080;28;20060;-79
2024/01/18 04:08:55;;;;;;;0.00;0.00;;;;;;;11.78;87.42;99427.59;10381923;28;20076;-79
2024/01/18 04:13:57;;;;;;;0.00;0.00;;;;;;;10.00;93.88;99436.00;10370037;28;20408;-79
2024/01/18 04:18:59;;;;;;;0.00;0.00;;;;;;;9.03;99.00;99455.06;10365379;28;20044;-79
2024/01/18 04:24:01;;;;;;;0.00;0.00;;;;;;;10.77;92.42;99456.84;10391432;28;20433;-79
2024/01/18 04:29:03;;;;;;;0.00;0.00;;;;;;;10.18;91.17;99465.22;10384922;28;20041;-79
2024/01/18 04:34:04;;;;;;;0.20;0.20;;;;;;;8.18;97.73;99472.09;10407146;28;20049;-80
2024/01/18 04:39:09;;;;;;;0.00;0.00;;;;;;;10.61;90.32;99475.72;10366952;28;20034;-79
2024/01/18 04:44:11;;;;;;;0.00;0.00;;;;;;;9.26;92.41;99482.66;10385075;28;20049;-79
2024/01/18 04:49:12;;;;;;;0.20;0.20;;;;;;;6.45;100.00;99479.56;10359329;28;20141;-79
2024/01/18 04:54:14;;;;;;;0.22;0.22;;;;;;;8.50;97.18;99492.19;10361807;28;20046;-80
2024/01/18 04:59:17;;;;;;;0.00;0.00;;;;;;;7.91;100.00;99493.97;10373290;28;20034;-80
2024/01/18 05:04:19;;;;;;;0.00;0.00;;;;;;;9.95;98.85;99489.13;10365463;28;20068;-79
2024/01/18 05:09:21;;;;;;;0.00;0.00;;;;;;;9.25;95.25;99513.50;10378316;28;20056;-79
2024/01/18 05:14:23;;;;;;;0.05;0.05;;;;;;;9.72;98.52;99507.84;10363237;28;20053;-79
2024/01/18 05:19:24;;;;;;;0.00;0.00;;;;;;;9.82;100.00;99509.63;10387970;28;20128;-80
2024/01/18 05:24:26;;;;;;;0.08;0.08;;;;;;;8.36;99.34;99516.81;10363101;28;20077;-80
2024/01/18 05:29:28;;;;;;;0.00;0.00;;;;;;;9.39;94.97;99524.75;10397657;28;20052;-80
2024/01/18 05:34:30;;;;;;;0.00;0.00;;;;;;;9.81;95.35;99523.34;10422751;28;20611;-80
2024/01/18 05:39:31;;;;;;;0.00;0.00;;;;;;;10.06;95.06;99520.94;10388705;28;20042;-80
2024/01/18 05:44:34;;;;;;;1.08;0.85;;;;;;;9.57;93.26;99538.63;10391622;28;20402;-79
2024/01/18 05:49:35;;;;;;;0.08;0.08;;;;;;;7.53;100.00;99535.28;10402852;28;20063;-79
2024/01/18 05:54:37;;;;;;;0.10;0.10;;;;;;;9.41;96.05;99546.19;10366145;28;20053;-79
2024/01/18 05:59:39;;;;;;;0.00;0.00;;;;;;;9.84;93.88;99567.13;10405656;28;20500;-79
2024/01/18 06:04:41;;;;;;;2.20;2.05;;;;;;;8.84;97.29;99567.03;10383651;28;20069;-79
2024/01/18 06:09:43;;;;;;;0.00;0.00;;;;;;;9.88;93.22;99572.25;10373807;28;20511;-80
2024/01/18 06:14:44;;;;;;;0.00;0.00;;;;;;;9.12;93.09;99579.31;10376539;28;20061;-80
2024/01/18 06:19:46;;;;;;;0.00;0.00;;;;;;;11.29;88.84;99583.25;10394526;28;20057;-81
2024/01/18 06:24:48;;;;;;;0.20;0.20;;;;;;;9.97;89.44;99590.34;10395951;28;20099;-80
2024/01/18 06:29:50;;;;;;;0.00;0.00;;;;;;;10.60;89.57;99595.91;10409460;28;20037;-80
2024/01/18 06:34:51;;;;;;;0.10;0.10;;;;;;;10.50;89.83;99611.31;10422999;28;20041;-80
2024/01/18 06:39:54;;;;;;;0.00;0.00;;;;;;;9.83;88.22;99619.41;10381773;28;20132;-80
2024/01/18 06:44:55;;;;;;;0.00;0.00;;;;;;;10.06;90.22;99636.75;10378899;28;20054;-80
2024/01/18 06:49:57;;;;;;;0.00;0.00;;;;;;;10.83;87.71;99640.66;10393859;28;20628;-81
2024/01/18 06:54:59;;;;;;;0.10;0.10;;;;;;;8.14;93.41;99652.50;10395318;28;20050;-80
2024/01/18 07:00:01;;;;;;;0.10;0.10;;;;;;;9.95;90.60;99648.63;10376045;28;20044;-80
2024/01/18 07:05:03;;;;;;;0.10;0.10;;;;;;;10.09;88.10;99657.31;10379501;28;20480;-80
2024/01/18 07:10:06;;;;;;;0.30;0.30;;;;;;;9.60;91.71;99662.94;10385683;28;20412;-80
2024/01/18 07:15:08;;;;;;;0.00;0.00;;;;;;;9.56;88.26;99671.44;10398617;28;20049;-81
2024/01/18 07:20:10;;;;;;;0.00;0.00;;;;;;;8.87;94.44;99679.19;10398273;28;20041;-80
2024/01/18 07:25:12;;;;;;;0.00;0.00;;;;;;;8.88;92.20;99686.94;10368663;28;20065;-80
2024/01/18 07:30:14;;;;;;;0.00;0.00;;;;;;;9.57;91.33;99687.75;10389120;28;20046;-81
2024/01/18 07:35:17;;;;;;;0.00;0.00;;;;;;;9.76;91.27;99693.91;10380837;28;20100;-81
2024/01/18 07:40:19;;;;;;;1.80;1.70;;;;;;;10.23;88.24;99705.50;10389737;28;20509;-81
2024/01/18 07:45:20;;;;;;;0.20;0.20;;;;;;;7.94;94.48;99708.59;10363996;28;20056;-80
2024/01/18 07:50:22;;;;;;;0.00;0.00;;;;;;;9.49;88.53;99710.78;10365007;28;20536;-81
2024/01/18 07:55:36;;;;;;;0.10;0.10;;;;;;;10.73;85.41;99720.47;10386873;28;20048;-81
2024/01/18 08:00:38;;;;;;;0.43;0.43;;;;;;;7.62;92.44;99732.81;10397987;28;20542;-81
2024/01/18 08:05:40;;;;;;;0.00;0.00;;;;;;;9.72;90.02;99728.19;10392274;28;20045;-80
2024/01/18 08:10:42;;;;;;;0.00;0.00;;;;;;;8.12;95.83;99741.38;10396374;28;20430;-81
2024/01/18 08:15:44;;;;;;;0.00;0.00;;;;;;;8.36;96.62;99752.91;10378627;28;20513;-81
2024/01/18 08:20:46;;;;;;;0.00;0.00;;;;;;;9.07;93.20;99748.84;10396362;28;20457;-81
2024/01/18 08:25:47;;;;;;;0.00;0.00;;;;;;;10.48;92.01;99763.22;10412003;28;20076;-82
2024/01/18 08:30:49;;;;;;;0.05;0.05;;;;;;;8.63;95.91;99767.03;10396456;28;20045;-80
2024/01/18 08:35:51;;;;;;;0.00;0.00;;;;;;;-146.30;100.00;58188.94;10405356;28;20053;-81
2024/01/18 08:40:53;;;;;;;1.20;1.00;;;;;;;-146.30;100.00;58188.94;10396400;28;20048;-81
2024/01/18 08:45:55;;;;;;;0.00;0.00;;;;;;;-146.30;100.00;58188.94;10406007;28;20056;-80
2024/01/18 08:50:56;;;;;;;0.20;0.20;;;;;;;-146.30;100.00;58188.94;10400394;28;20404;-80
2024/01/18 08:55:58;;;;;;;0.00;0.00;;;;;;;-146.30;100.00;58188.94;10394938;28;20123;-80
2024/01/18 09:01:00;;;;;;;0.65;0.65;;;;;;;-146.30;100.00;58188.94;10394781;28;20046;-81
2024/01/18 09:06:02;;;;;;;0.13;0.13;;;;;;;-146.30;100.00;58188.94;10379572;28;20067;-80
2024/01/18 09:11:04;;;;;;;0.10;0.10;;;;;;;-146.30;100.00;58188.94;10368205;28;20056;-80
2024/01/18 09:16:07;;;;;;;0.00;0.00;;;;;;;-146.30;100.00;58188.94;10419548;28;20071;-80
2024/01/18 09:21:08;;;;;;;0.00;0.00;;;;;;;-146.30;100.00;58188.94;10372472;28;20163;-80
2024/01/18 09:26:10;;;;;;;0.00;0.00;;;;;;;-146.30;100.00;58188.94;10398454;28;20072;-80
2024/01/18 09:31:12;;;;;;;0.00;0.00;;;;;;;-146.30;100.00;58188.94;10388728;28;20041;-81
2024/01/18 09:36:24;;;;;;;0.47;0.47;;;;;;;-146.30;100.00;58188.94;10404421;28;20257;-81
2024/01/18 09:41:29;;;;;;;0.45;0.45;;;;;;;-146.30;100.00;58188.94;10393047;28;20077;-80
2024/01/18 09:46:31;;;;;;;0.05;0.05;;;;;;;-146.30;100.00;58188.94;10362068;28;20451;-80
2024/01/18 09:51:33;;;;;;;0.00;0.00;;;;;;;-146.30;100.00;58188.94;10393291;28;20056;-81
2024/01/18 09:56:42;;;;;;;0.00;0.00;;;;;;;-146.30;100.00;58188.94;10387448;28;20516;-80
2024/01/18 10:01:45;;;;;;;0.15;0.15;;;;;;;-146.30;100.00;58188.94;10372946;28;20041;-80
2024/01/18 10:06:47;;;;;;;0.00;0.00;;;;;;;-146.30;100.00;58188.94;10383575;28;20053;-80
2024/01/18 10:11:49;;;;;;;0.00;0.00;;;;;;;-146.30;100.00;58188.94;10382476;28;20209;-80
2024/01/18 10:16:52;;;;;;;0.00;0.00;;;;;;;-146.30;100.00;58188.94;10388799;28;20104;-80
2024/01/18 10:21:54;;;;;;;0.00;0.00;;;;;;;-146.30;100.00;58188.94;10367456;28;20068;-80
2024/01/18 10:27:04;;;;;;;0.00;0.00;;;;;;;-146.30;100.00;58188.94;10382388;28;20063;-80
2024/01/18 10:32:06;;;;;;;0.00;0.00;;;;;;;-146.30;100.00;58188.94;10370450;28;20046;-81
2024/01/18 10:37:15;;;;;;;0.10;0.10;;;;;;;-146.30;100.00;58188.94;10350252;28;20398;-81
2024/01/18 10:42:17;;;;;;;0.00;0.00;;;;;;;-146.30;100.00;58188.94;10387210;28;20046;-81
2024/01/18 10:47:19;;;;;;;0.00;0.00;;;;;;;-146.30;100.00;58188.94;10361258;28;20073;-81
2024/01/18 10:52:22;;;;;;;0.00;0.00;;;;;;;-146.30;100.00;58188.94;10384445;28;20042;-80
2024/01/18 10:57:24;;;;;;;0.00;0.00;;;;;;;-146.30;100.00;58188.94;10406760;28;20144;-81
2024/01/18 11:02:26;;;;;;;0.00;0.00;;;;;;;-146.30;100.00;58188.94;10385107;28;20136;-81
2024/01/18 11:07:30;;;;;;;0.00;0.00;;;;;;;-146.30;100.00;58188.94;10345877;28;20053;-80
2024/01/18 11:12:32;;;;;;;0.00;0.00;;;;;;;-146.30;100.00;58188.94;10377277;28;20433;-81
2024/01/18 11:17:35;;;;;;;0.00;0.00;;;;;;;-146.30;100.00;58188.94;10375827;28;20049;-81
2024/01/18 11:22:39;;;;;;;0.00;0.00;;;;;;;-146.30;100.00;58188.94;10407697;28;20461;-81
2024/01/18 11:27:41;;;;;;;0.10;0.10;;;;;;;-146.30;100.00;58188.94;10393969;28;20175;-83
2024/01/18 11:32:43;;;;;;;0.00;0.00;;;;;;;-146.30;100.00;58188.94;10416370;28;20077;-82
2024/01/18 11:37:45;;;;;;;0.20;0.15;;;;;;;-146.30;100.00;58188.94;10392572;28;20053;-82
2024/01/18 11:42:47;;;;;;;0.00;0.00;;;;;;;-146.30;100.00;58188.94;10368433;28;20061;-81
2024/01/18 11:47:48;;;;;;;1.95;0.45;;;;;;;-146.30;100.00;58188.94;10422960;28;20412;-82
2024/01/18 11:52:51;;;;;;;0.00;0.00;;;;;;;-146.30;100.00;58188.94;10401618;28;20053;-83
2024/01/18 11:57:53;;;;;;;0.00;0.00;;;;;;;-146.30;100.00;58188.94;10408814;28;20507;-81
2024/01/18 12:02:55;;;;;;;0.00;0.00;;;;;;;-146.30;100.00;58188.94;10418156;28;20635;-81
2024/01/18 12:07:57;;;;;;;0.00;0.00;;;;;;;-146.30;100.00;58188.94;10388245;28;20519;-82
2024/01/18 12:12:59;;;;;;;0.08;0.08;;;;;;;-146.30;100.00;58188.94;10407321;28;20041;-81
2024/01/18 12:18:01;;;;;;;0.35;0.35;;;;;;;-146.30;100.00;58188.94;10358623;28;20046;-82
2024/01/18 12:23:03;;;;;;;0.00;0.00;;;;;;;-146.30;100.00;58188.94;10390951;28;20124;-82
2024/01/18 12:28:05;;;;;;;0.30;0.17;;;;;;;-146.30;100.00;58188.94;10357355;28;20136;-81
2024/01/18 12:33:07;;;;;;;0.00;0.00;;;;;;;-146.30;100.00;58188.94;10407709;28;20099;-82
2024/01/18 12:38:09;;;;;;;0.00;0.00;;;;;;;-146.30;100.00;58188.94;10373310;28;20085;-82
2024/01/18 12:43:11;;;;;;;0.08;0.08;;;;;;;-146.30;100.00;58188.94;10393762;28;20144;-81
2024/01/18 12:48:12;;;;;;;0.00;0.00;;;;;;;-146.30;100.00;58188.94;10379868;28;20089;-83
2024/01/18 12:53:14;;;;;;;0.00;0.00;;;;;;;-146.30;100.00;58188.94;10390902;28;20510;-81
2024/01/18 12:58:16;;;;;;;0.00;0.00;;;;;;;-146.30;100.00;58188.94;10393966;28;20078;-81
2024/01/18 13:03:20;;;;;;;0.00;0.00;;;;;;;-146.30;100.00;58188.94;10413483;28;20125;-82
2024/01/18 13:08:22;;;;;;;0.00;0.00;;;;;;;-146.30;100.00;58188.94;10405072;28;20049;-82
2024/01/18 13:13:24;;;;;;;0.00;0.00;;;;;;;-146.30;100.00;58188.94;10403856;28;20069;-82
2024/01/18 13:18:26;;;;;;;0.00;0.00;;;;;;;-146.30;100.00;58188.94;10352787;28;20149;-80
2024/01/18 13:23:28;;;;;;;0.00;0.00;;;;;;;-146.30;100.00;58188.94;10396970;28;20056;-81
2024/01/18 13:28:31;;;;;;;0.00;0.00;;;;;;;-146.30;100.00;58188.94;10361650;28;20065;-80
2024/01/18 13:33:33;;;;;;;0.00;0.00;;;;;;;-146.30;100.00;58188.94;10378815;28;20484;-81
2024/01/18 13:38:36;;;;;;;0.25;0.03;;;;;;;-146.30;100.00;58188.94;10388022;28;20417;-81
2024/01/18 13:43:38;;;;;;;0.00;0.00;;;;;;;-146.30;100.00;58188.94;10387182;28;20037;-82
2024/01/18 13:48:41;;;;;;;0.00;0.00;;;;;;;-146.30;100.00;58188.94;10398861;28;20049;-81
2024/01/18 13:53:45;;;;;;;0.45;0.35;;;;;;;-146.30;100.00;58188.94;10403705;28;20052;-81
2024/01/18 13:58:47;;;;;;;0.30;0.30;;;;;;;-146.30;100.00;58188.94;10374894;28;20041;-81
2024/01/18 14:03:51;;;;;;;0.00;0.00;;;;;;;-146.30;100.00;58188.94;10388409;28;20158;-82
2024/01/18 14:08:53;;;;;;;0.00;0.00;;;;;;;-146.30;100.00;58188.94;10399601;28;20046;-83
2024/01/18 14:13:55;;;;;;;0.00;0.00;;;;;;;-146.30;100.00;58188.94;10401474;28;20469;-82
2024/01/18 14:18:57;;;;;;;0.05;0.00;;;;;;;-146.30;100.00;58188.94;10375977;28;20154;-83
2024/01/18 14:23:59;;;;;;;2.53;0.17;;;;;;;-146.30;100.00;58188.94;10371770;28;20046;-82
2024/01/18 14:29:01;;;;;;;0.00;0.00;;;;;;;-146.30;100.00;58188.94;10374757;28;20042;-82
2024/01/18 14:34:02;;;;;;;0.00;0.00;;;;;;;-146.30;100.00;58188.94;10401027;28;20467;-81
2024/01/18 14:39:04;;;;;;;0.00;0.00;;;;;;;-146.30;100.00;58188.94;10367120;28;20095;-81
2024/01/18 14:44:07;;;;;;;0.00;0.00;;;;;;;-146.30;100.00;58188.94;10359686;28;20100;-81
2024/01/18 14:49:08;;;;;;;0.00;0.00;;;;;;;-146.30;100.00;58188.94;10397640;28;20045;-81
2024/01/18 14:54:10;;;;;;;0.00;0.00;;;;;;;-146.30;100.00;58188.94;10387528;28;20049;-81
2024/01/18 14:59:13;;;;;;;0.00;0.00;;;;;;;-146.30;100.00;58188.94;10375449;28;20050;-81
2024/01/18 15:04:15;;;;;;;0.10;0.10;;;;;;;-146.30;100.00;58188.94;10400632;28;20146;-80
2024/01/18 15:09:17;;;;;;;0.00;0.00;;;;;;;-146.30;100.00;58188.94;10379767;28;20053;-81
2024/01/18 15:14:18;;;;;;;1.08;1.08;;;;;;;-146.30;100.00;58188.94;10383887;28;20069;-81
2024/01/18 15:19:20;;;;;;;0.00;0.00;;;;;;;-146.30;100.00;58188.94;10372462;28;20046;-81
2024/01/18 15:24:22;;;;;;;0.00;0.00;;;;;;;-146.30;100.00;58188.94;10384274;28;20489;-81
2024/01/18 15:29:24;;;;;;;0.00;0.00;;;;;;;-146.30;100.00;58188.94;10386692;28;20041;-81
2024/01/18 15:34:26;;;;;;;0.00;0.00;;;;;;;-146.30;100.00;58188.94;10391873;28;20149;-82
2024/01/18 15:39:30;;;;;;;0.00;0.00;;;;;;;-146.30;100.00;58188.94;10358688;28;20050;-82
2024/01/18 15:44:32;;;;;;;0.00;0.00;;;;;;;-146.30;100.00;58188.94;10384023;28;20053;-83
2024/01/18 15:49:33;;;;;;;0.10;0.10;;;;;;;-146.30;100.00;58188.94;10387082;28;20128;-82
2024/01/18 15:54:35;;;;;;;0.00;0.00;;;;;;;-146.30;100.00;58188.94;10382625;28;20458;-82
2024/01/18 15:59:37;;;;;;;0.00;0.00;;;;;;;-146.30;100.00;58188.94;10373231;28;20049;-83
2024/01/18 16:04:39;;;;;;;0.03;0.03;;;;;;;-146.30;100.00;58188.94;10359766;28;20562;-82
2024/01/18 16:09:42;;;;;;;0.00;0.00;;;;;;;-146.30;100.00;58188.94;10371058;28;20041;-82
2024/01/18 16:14:46;;;;;;;0.00;0.00;;;;;;;-146.30;100.00;58188.94;10356658;28;20092;-82
2024/01/18 16:19:48;;;;;;;0.00;0.00;;;;;;;-146.30;100.00;58188.94;10385225;28;20401;-82
2024/01/18 16:24:50;;;;;;;0.00;0.00;;;;;;;-146.30;100.00;58188.94;10371112;28;20497;-82
2024/01/18 16:29:54;;;;;;;0.00;0.00;;;;;;;-146.30;100.00;58188.94;10407588;28;20057;-82
2024/01/18 16:35:09;;;;;;;0.00;0.00;;;;;;;-146.30;100.00;58188.94;10366185;28;20069;-82
2024/01/18 16:40:11;;;;;;;0.00;0.00;;;;;;;-146.30;100.00;58188.94;10366444;28;20038;-82
2024/01/18 16:45:13;;;;;;;0.00;0.00;;;;;;;-146.30;100.00;58188.94;10389090;28;20052;-82
2024/01/18 16:50:21;;;;;;;0.00;0.00;;;;;;;-146.30;100.00;58188.94;10366425;28;20459;-81
2024/01/18 16:55:23;;;;;;;0.00;0.00;;;;;;;-146.30;100.00;58188.94;10361782;28;20144;-82
2024/01/18 17:00:25;;;;;;;0.00;0.00;;;;;;;-146.30;100.00;58188.94;10385964;28;20100;-81
2024/01/18 17:05:27;;;;;;;0.00;0.00;;;;;;;-146.30;100.00;58188.94;10406934;28;20159;-81
2024/01/18 17:10:29;;;;;;;0.10;0.10;;;;;;;-146.30;100.00;58188.94;10380678;28;20045;-81
2024/01/18 17:15:31;;;;;;;0.00;0.00;;;;;;;-146.30;100.00;58188.94;10388500;28;20064;-81
2024/01/18 17:20:33;;;;;;;0.00;0.00;;;;;;;-146.30;100.00;58188.94;10359520;28;20077;-81
2024/01/18 17:25:35;;;;;;;0.00;0.00;;;;;;;-146.30;100.00;58188.94;10382504;28;20124;-81
2024/01/18 17:30:39;;;;;;;0.00;0.00;;;;;;;-146.30;100.00;58188.94;10381526;28;20132;-81
2024/01/18 17:35:40;;;;;;;0.00;0.00;;;;;;;-146.30;100.00;58188.94;10367091;28;20115;-80
2024/01/18 17:40:42;;;;;;;0.00;0.00;;;;;;;-146.30;100.00;58188.94;10379826;28;20156;-81
2024/01/18 17:45:44;;;;;;;0.00;0.00;;;;;;;-146.30;100.00;58188.94;10366699;28;20255;-81
2024/01/18 17:50:46;;;;;;;0.00;0.00;;;;;;;-146.30;100.00;58188.94;10411197;28;20144;-81
2024/01/18 17:55:48;;;;;;;0.00;0.00;;;;;;;-146.30;100.00;58188.94;10380018;28;20141;-80
2024/01/18 18:00:50;;;;;;;0.00;0.00;;;;;;;-146.30;100.00;58188.94;10386041;28;20041;-81
2024/01/18 18:05:51;;;;;;;0.00;0.00;;;;;;;-146.30;100.00;58188.94;10378865;28;20081;-79
2024/01/18 18:10:53;;;;;;;0.00;0.00;;;;;;;-146.30;100.00;58188.94;10408528;28;20046;-81
2024/01/18 18:15:57;;;;;;;0.00;0.00;;;;;;;-146.30;100.00;58188.94;10404231;28;20128;-81
2024/01/18 18:20:59;;;;;;;0.00;0.00;;;;;;;-146.30;100.00;58188.94;10393913;28;20111;-80
2024/01/18 18:26:00;;;;;;;0.00;0.00;;;;;;;-146.30;100.00;58188.94;10399275;28;20050;-80
2024/01/18 18:31:09;;;;;;;0.00;0.00;;;;;;;-146.30;100.00;58188.94;10383396;28;20447;-80
2024/01/18 18:36:12;;;;;;;0.03;0.03;;;;;;;-146.30;100.00;58188.94;10404663;28;20050;-79
2024/01/18 18:41:13;;;;;;;0.10;0.10;;;;;;;-146.30;100.00;58188.94;10385711;28;20132;-79
2024/01/18 18:46:15;;;;;;;0.50;0.35;;;;;;;-146.30;100.00;58188.94;10384060;28;20065;-79
2024/01/18 18:51:18;;;;;;;0.00;0.00;;;;;;;-146.30;100.00;58188.94;10379209;28;20069;-79
2024/01/18 18:56:20;;;;;;;0.00;0.00;;;;;;;-146.30;100.00;58188.94;10375960;28;20104;-79
2024/01/18 19:01:22;;;;;;;0.10;0.10;;;;;;;-146.30;100.00;58188.94;10370656;28;20042;-79
2024/01/18 19:06:23;;;;;;;0.38;0.38;;;;;;;-146.30;100.00;58188.94;10388542;28;20064;-79
2024/01/18 19:11:25;;;;;;;0.00;0.00;;;;;;;-146.30;100.00;58188.94;10386526;28;20045;-78
2024/01/18 19:16:27;;;;;;;0.00;0.00;;;;;;;-146.30;100.00;58188.94;10379900;28;20046;-78
2024/01/18 19:21:29;;;;;;;0.00;0.00;;;;;;;-146.30;100.00;58188.94;10381122;28;20359;-77
2024/01/18 19:26:30;;;;;;;0.00;0.00;;;;;;;-146.30;100.00;58188.94;10378331;28;20064;-78
2024/01/18 19:31:34;;;;;;;0.10;0.10;;;;;;;-146.30;100.00;58188.94;10363388;28;20053;-81
2024/01/18 19:36:36;;;;;;;0.00;0.00;;;;;;;-146.30;100.00;58188.94;10368216;28;20532;-82
2024/01/18 19:41:37;;;;;;;0.00;0.00;;;;;;;-146.30;100.00;58188.94;10367936;28;20069;-81
2024/01/18 19:46:39;;;;;;;0.00;0.00;;;;;;;-146.30;100.00;58188.94;10363714;28;20061;-81
2024/01/18 19:51:41;;;;;;;0.00;0.00;;;;;;;-146.30;100.00;58188.94;10385252;28;20045;-81
2024/01/18 19:56:43;;;;;;;0.15;0.15;;;;;;;-146.30;100.00;58188.94;10374195;28;20337;-82
2024/01/18 20:01:45;;;;;;;0.00;0.00;;;;;;;-146.30;100.00;58188.94;10397581;28;20045;-81
2024/01/18 20:06:46;;;;;;;0.00;0.00;;;;;;;-146.30;100.00;58188.94;10366968;28;20460;-81
2024/01/18 20:11:48;;;;;;;0.00;0.00;;;;;;;-146.30;100.00;58188.94;10392371;28;20129;-81
2024/01/18 20:16:53;;;;;;;0.00;0.00;;;;;;;-146.30;100.00;58188.94;10397507;28;20050;-81
2024/01/18 20:21:55;;;;;;;0.38;0.20;;;;;;;-146.30;100.00;58188.94;10387708;28;20037;-82
2024/01/18 20:26:57;;;;;;;0.00;0.00;;;;;;;-146.30;100.00;58188.94;10378387;28;20092;-81
2024/01/18 20:31:59;;;;;;;0.00;0.00;;;;;;;-146.30;100.00;58188.94;10394719;28;20127;-81
2024/01/18 20:37:01;;;;;;;0.00;0.00;;;;;;;-146.30;100.00;58188.94;10374045;28;20062;-81
2024/01/18 20:42:03;;;;;;;0.10;0.10;;;;;;;-146.30;100.00;58188.94;10389792;28;20390;-81
2024/01/18 20:47:05;;;;;;;0.00;0.00;;;;;;;-146.30;100.00;58188.94;10356448;28;20145;-82
2024/01/18 20:52:07;;;;;;;0.30;0.28;;;;;;;-146.30;100.00;58188.94;10383732;28;20042;-81
2024/01/18 20:57:10;;;;;;;1.55;1.45;;;;;;;-146.30;100.00;58188.94;10395030;28;20144;-82
2024/01/18 21:02:12;;;;;;;0.22;0.20;;;;;;;-146.30;100.00;58188.94;10384155;28;20145;-81
2024/01/18 21:07:15;;;;;;;0.00;0.00;;;;;;;-146.30;100.00;58188.94;10378244;28;20402;-81
2024/01/18 21:12:19;;;;;;;0.10;0.10;;;;;;;-146.30;100.00;58188.94;10393618;28;20224;-81
2024/01/18 21:17:21;;;;;;;0.00;0.00;;;;;;;-146.30;100.00;58188.94;10366577;28;20457;-82
2024/01/18 21:22:23;;;;;;;0.00;0.00;;;;;;;-146.30;100.00;58188.94;10394177;28;20049;-82
2024/01/18 21:27:25;;;;;;;0.00;0.00;;;;;;;-146.30;100.00;58188.94;10400157;28;20104;-81
2024/01/18 21:32:26;;;;;;;0.10;0.10;;;;;;;-146.30;100.00;58188.94;10371731;28;20122;-81
2024/01/18 21:37:28;;;;;;;0.20;0.20;;;;;;;-146.30;100.00;58188.94;10384923;28;20343;-81
2024/01/18 21:42:30;;;;;;;0.30;0.30;;;;;;;-146.30;100.00;58188.94;10398277;28;20153;-82
2024/01/18 21:47:32;;;;;;;0.10;0.10;;;;;;;-146.30;100.00;58188.94;10393656;28;20042;-82
2024/01/18 21:52:34;;;;;;;0.00;0.00;;;;;;;-146.30;100.00;58188.94;10412608;28;20066;-82
2024/01/18 21:57:36;;;;;;;0.00;0.00;;;;;;;-146.30;100.00;58188.94;10377672;28;20053;-81
2024/01/18 22:02:38;;;;;;;0.15;0.15;;;;;;;-146.30;100.00;58188.94;10404116;28;20124;-82
2024/01/18 22:07:44;;;;;;;0.00;0.00;;;;;;;-146.30;100.00;58188.94;10384484;28;20095;-82
2024/01/18 22:12:46;;;;;;;0.10;0.10;;;;;;;-146.30;100.00;58188.94;10400587;28;20065;-82
2024/01/18 22:17:48;;;;;;;0.00;0.00;;;;;;;-146.30;100.00;58188.94;10368108;28;20475;-81
2024/01/18 22:22:50;;;;;;;0.00;0.00;;;;;;;-146.30;100.00;58188.94;10357800;28;20030;-82
2024/01/18 22:27:51;;;;;;;0.00;0.00;;;;;;;-146.30;100.00;58188.94;10364511;28;20481;-81
2024/01/18 22:32:53;;;;;;;0.10;0.10;;;;;;;-146.30;100.00;58188.94;10393996;28;20078;-82
2024/01/18 22:37:55;;;;;;;0.10;0.10;;;;;;;-146.30;100.00;58188.94;10398047;28;20045;-82
2024/01/18 22:42:57;;;;;;;0.00;0.00;;;;;;;-146.30;100.00;58188.94;10388402;28;20069;-82
2024/01/18 22:48:04;;;;;;;0.10;0.10;;;;;;;-146.30;100.00;58188.94;10376995;28;20072;-81
2024/01/18 22:53:06;;;;;;;0.00;0.00;;;;;;;-146.30;100.00;58188.94;10379500;28;20053;-82
2024/01/18 22:58:09;;;;;;;0.00;0.00;;;;;;;-146.30;100.00;58188.94;10364891;28;20046;-81